CCA242 EGLL-ZUTF
Flight info
| Callsign | CCA242 |
|---|---|
| Flight time | N/A |
| Altitude | 37000 |
| Route | DET Q70 ITVIP L10 DVR UL9 KONAN UL607 KOK M150 PITES DCT NOMBO Y161 RIDAR Z98 WLD T702 BADIT DCT SASAL DCT MAVIR DCT NEKUL DCT PETOS DCT NEDSI/N0479F390 T343 UDROS UM859 KARDE UN644 ROLIN N644 LAGAS M747 LUSAL N199 RASAM L88 METKA B476 DARVA/K0887F390 T898 OGOLI/K0896F410 N193 SR L163 TISIB L141 KAMUD/K0896S1250 W186 SADAN Y1 OMBON W245 OVRAL B330 MEXAD MEXAD6L |
| Aircraft | A359/H-SDE2E3GHIJ1J3J4J5LM1ORWXYZ/LB1D1 |
Departure
| Time | 2026-05-07 23:23 |
|---|---|
| Airport | London Heathrow Airport (EGLL) |
Arrival
| Time | N/A |
|---|---|
| Airport | Chengdu Tianfu International Airport (ZUTF) |
| Time | Latitude | Longitude | Altitude | Speed | Heading |
|---|---|---|---|---|---|
| 2026-05-07 22:01 | 51.47340 | -0.44421 | 92 ft | 0 kts | 90° |
| 2026-05-07 23:10 | 51.47340 | -0.44423 | 92 ft | 2 kts | 90° |
| 2026-05-07 23:10 | 51.47340 | -0.44464 | 93 ft | 4 kts | 90° |
| 2026-05-07 23:10 | 51.47340 | -0.44496 | 94 ft | 3 kts | 90° |
| 2026-05-07 23:10 | 51.47343 | -0.44535 | 93 ft | 4 kts | 123° |
| 2026-05-07 23:11 | 51.47362 | -0.44558 | 92 ft | 4 kts | 176° |
| 2026-05-07 23:11 | 51.47387 | -0.44559 | 91 ft | 4 kts | 180° |
| 2026-05-07 23:11 | 51.47397 | -0.44559 | 91 ft | 0 kts | 180° |
| 2026-05-07 23:14 | 51.47395 | -0.44559 | 91 ft | 3 kts | 180° |
| 2026-05-07 23:14 | 51.47343 | -0.44559 | 93 ft | 11 kts | 180° |
| 2026-05-07 23:14 | 51.47245 | -0.44558 | 95 ft | 17 kts | 179° |
| 2026-05-07 23:15 | 51.47132 | -0.44557 | 92 ft | 12 kts | 180° |
| 2026-05-07 23:15 | 51.47048 | -0.44556 | 93 ft | 12 kts | 180° |
| 2026-05-07 23:15 | 51.46944 | -0.44555 | 92 ft | 17 kts | 180° |
| 2026-05-07 23:15 | 51.46820 | -0.44554 | 94 ft | 19 kts | 179° |
| 2026-05-07 23:16 | 51.46725 | -0.44553 | 95 ft | 9 kts | 180° |
| 2026-05-07 23:16 | 51.46683 | -0.44583 | 97 ft | 9 kts | 231° |
| 2026-05-07 23:16 | 51.46665 | -0.44707 | 93 ft | 13 kts | 269° |
| 2026-05-07 23:16 | 51.46663 | -0.44881 | 93 ft | 14 kts | 270° |
| 2026-05-07 23:17 | 51.46663 | -0.45075 | 93 ft | 20 kts | 270° |
| 2026-05-07 23:17 | 51.46662 | -0.45316 | 92 ft | 21 kts | 270° |
| 2026-05-07 23:17 | 51.46662 | -0.45538 | 92 ft | 20 kts | 270° |
| 2026-05-07 23:17 | 51.46661 | -0.45757 | 94 ft | 20 kts | 270° |
| 2026-05-07 23:18 | 51.46661 | -0.45980 | 94 ft | 21 kts | 269° |
| 2026-05-07 23:18 | 51.46660 | -0.46224 | 96 ft | 22 kts | 270° |
| 2026-05-07 23:18 | 51.46659 | -0.46470 | 96 ft | 20 kts | 270° |
| 2026-05-07 23:18 | 51.46658 | -0.46698 | 96 ft | 22 kts | 269° |
| 2026-05-07 23:19 | 51.46657 | -0.46940 | 96 ft | 23 kts | 269° |
| 2026-05-07 23:19 | 51.46655 | -0.47203 | 95 ft | 23 kts | 270° |
| 2026-05-07 23:19 | 51.46655 | -0.47454 | 95 ft | 24 kts | 269° |
| 2026-05-07 23:19 | 51.46654 | -0.47724 | 95 ft | 24 kts | 270° |
| 2026-05-07 23:20 | 51.46653 | -0.47993 | 94 ft | 24 kts | 269° |
| 2026-05-07 23:20 | 51.46654 | -0.48222 | 95 ft | 18 kts | 270° |
| 2026-05-07 23:20 | 51.46653 | -0.48413 | 96 ft | 8 kts | 261° |
| 2026-05-07 23:20 | 51.46622 | -0.48456 | 96 ft | 9 kts | 198° |
| 2026-05-07 23:21 | 51.46537 | -0.48471 | 94 ft | 8 kts | 180° |
| 2026-05-07 23:21 | 51.46499 | -0.48468 | 95 ft | 4 kts | 166° |
| 2026-05-07 23:21 | 51.46480 | -0.48407 | 96 ft | 9 kts | 99° |
| 2026-05-07 23:21 | 51.46480 | -0.48389 | 97 ft | 0 kts | 90° |
| 2026-05-07 23:22 | 51.46480 | -0.48250 | 95 ft | 39 kts | 89° |
| 2026-05-07 23:22 | 51.46482 | -0.47478 | 94 ft | 98 kts | 90° |
| 2026-05-07 23:22 | 51.46486 | -0.46123 | 97 ft | 147 kts | 90° |
| 2026-05-07 23:23 | 51.46490 | -0.44357 | 500 ft | 156 kts | 89° |
| 2026-05-07 23:23 | 51.46604 | -0.42612 | 1017 ft | 163 kts | 77° |
| 2026-05-07 23:23 | 51.47274 | -0.41117 | 1512 ft | 172 kts | 36° |
| 2026-05-07 23:23 | 51.48358 | -0.40203 | 1912 ft | 182 kts | 33° |
| 2026-05-07 23:24 | 51.49426 | -0.38978 | 2189 ft | 195 kts | 43° |
| 2026-05-07 23:24 | 51.50469 | -0.37461 | 2442 ft | 211 kts | 53° |
| 2026-05-07 23:24 | 51.51129 | -0.35308 | 2755 ft | 222 kts | 75° |
| 2026-05-07 23:24 | 51.51563 | -0.32829 | 3038 ft | 240 kts | 74° |
| 2026-05-07 23:25 | 51.52119 | -0.30234 | 3511 ft | 250 kts | 71° |
| 2026-05-07 23:25 | 51.52717 | -0.27613 | 4112 ft | 254 kts | 71° |
| 2026-05-07 23:25 | 51.53322 | -0.24947 | 4748 ft | 257 kts | 71° |
| 2026-05-07 23:25 | 51.54130 | -0.22354 | 5342 ft | 263 kts | 54° |
| 2026-05-07 23:26 | 51.55516 | -0.20431 | 5915 ft | 267 kts | 29° |
| 2026-05-07 23:26 | 51.57204 | -0.19159 | 6543 ft | 270 kts | 23° |
| 2026-05-07 23:26 | 51.58966 | -0.18032 | 7132 ft | 275 kts | 18° |
| 2026-05-07 23:26 | 51.60809 | -0.17136 | 7695 ft | 278 kts | 15° |
| 2026-05-07 23:27 | 51.64566 | -0.15449 | 8922 ft | 284 kts | 14° |
| 2026-05-07 23:27 | 51.66478 | -0.14584 | 9533 ft | 287 kts | 13° |
| 2026-05-07 23:27 | 51.68412 | -0.13703 | 10148 ft | 291 kts | 13° |
| 2026-05-07 23:28 | 51.70403 | -0.12790 | 10435 ft | 305 kts | 14° |
| 2026-05-07 23:28 | 51.72465 | -0.11658 | 10653 ft | 322 kts | 24° |
| 2026-05-07 23:28 | 51.74292 | -0.09435 | 10851 ft | 340 kts | 50° |
| 2026-05-07 23:28 | 51.75423 | -0.06025 | 11069 ft | 354 kts | 72° |
| 2026-05-07 23:29 | 51.76034 | -0.02109 | 11291 ft | 366 kts | 80° |
| 2026-05-07 23:29 | 51.76391 | 0.01987 | 11734 ft | 370 kts | 84° |
| 2026-05-07 23:29 | 51.76644 | 0.06130 | 12246 ft | 372 kts | 85° |
| 2026-05-07 23:29 | 51.76882 | 0.10316 | 12710 ft | 376 kts | 85° |
| 2026-05-07 23:30 | 51.77143 | 0.14533 | 13197 ft | 379 kts | 85° |
| 2026-05-07 23:30 | 51.77438 | 0.18781 | 13677 ft | 382 kts | 84° |
| 2026-05-07 23:30 | 51.77759 | 0.22995 | 14105 ft | 385 kts | 84° |
| 2026-05-07 23:30 | 51.78104 | 0.27296 | 14513 ft | 388 kts | 84° |
| 2026-05-07 23:31 | 51.78457 | 0.31621 | 14938 ft | 390 kts | 84° |
| 2026-05-07 23:31 | 51.78810 | 0.35987 | 15361 ft | 393 kts | 84° |
| 2026-05-07 23:31 | 51.79163 | 0.40376 | 15797 ft | 395 kts | 84° |
| 2026-05-07 23:31 | 51.79515 | 0.44792 | 16207 ft | 398 kts | 84° |
| 2026-05-07 23:32 | 51.79868 | 0.49245 | 16629 ft | 401 kts | 84° |
| 2026-05-07 23:32 | 51.80221 | 0.53726 | 17043 ft | 404 kts | 84° |
| 2026-05-07 23:32 | 51.80574 | 0.58235 | 17456 ft | 406 kts | 84° |
| 2026-05-07 23:32 | 51.80966 | 0.62770 | 17877 ft | 409 kts | 80° |
| 2026-05-07 23:33 | 51.81743 | 0.67213 | 18311 ft | 412 kts | 72° |
| 2026-05-07 23:33 | 51.82724 | 0.71583 | 18671 ft | 415 kts | 69° |
| 2026-05-07 23:33 | 51.83806 | 0.75924 | 19018 ft | 417 kts | 68° |
| 2026-05-07 23:33 | 51.84938 | 0.80254 | 19386 ft | 420 kts | 67° |
| 2026-05-07 23:34 | 51.86092 | 0.84603 | 19751 ft | 422 kts | 67° |
| 2026-05-07 23:34 | 51.87255 | 0.88974 | 20103 ft | 424 kts | 67° |
| 2026-05-07 23:34 | 51.88413 | 0.93376 | 20455 ft | 426 kts | 68° |
| 2026-05-07 23:34 | 51.89560 | 0.97802 | 20797 ft | 428 kts | 68° |
| 2026-05-07 23:35 | 51.90706 | 1.02265 | 21133 ft | 430 kts | 68° |
| 2026-05-07 23:35 | 51.91852 | 1.06752 | 21476 ft | 432 kts | 68° |
| 2026-05-07 23:35 | 51.93001 | 1.11264 | 21827 ft | 434 kts | 68° |
| 2026-05-07 23:35 | 51.94155 | 1.15801 | 22170 ft | 437 kts | 68° |
| 2026-05-07 23:36 | 51.95313 | 1.20363 | 22497 ft | 439 kts | 68° |
| 2026-05-07 23:36 | 51.96474 | 1.24943 | 22831 ft | 441 kts | 68° |
| 2026-05-07 23:36 | 51.97643 | 1.29558 | 23155 ft | 443 kts | 68° |
| 2026-05-07 23:36 | 51.98798 | 1.34130 | 23495 ft | 445 kts | 68° |
| 2026-05-07 23:37 | 51.99973 | 1.38790 | 23805 ft | 447 kts | 68° |
| 2026-05-07 23:37 | 52.01152 | 1.43472 | 24079 ft | 450 kts | 68° |
| 2026-05-07 23:37 | 52.02335 | 1.48184 | 24364 ft | 452 kts | 68° |
| 2026-05-07 23:37 | 52.03523 | 1.52923 | 24615 ft | 454 kts | 68° |
| 2026-05-07 23:38 | 52.04712 | 1.57681 | 24871 ft | 457 kts | 68° |
| 2026-05-07 23:38 | 52.05909 | 1.62475 | 25153 ft | 458 kts | 68° |
| 2026-05-07 23:38 | 52.07107 | 1.67286 | 25438 ft | 460 kts | 68° |
| 2026-05-07 23:38 | 52.08308 | 1.72118 | 25734 ft | 462 kts | 68° |
| 2026-05-07 23:39 | 52.09512 | 1.76975 | 26016 ft | 464 kts | 68° |
| 2026-05-07 23:39 | 52.10719 | 1.81857 | 26309 ft | 466 kts | 68° |
| 2026-05-07 23:39 | 52.11930 | 1.86761 | 26598 ft | 468 kts | 68° |
| 2026-05-07 23:39 | 52.13143 | 1.91687 | 26892 ft | 470 kts | 68° |
| 2026-05-07 23:40 | 52.14359 | 1.96639 | 27189 ft | 472 kts | 68° |
| 2026-05-07 23:40 | 52.15581 | 2.01621 | 27444 ft | 475 kts | 68° |
| 2026-05-07 23:40 | 52.16805 | 2.06627 | 27743 ft | 477 kts | 68° |
| 2026-05-07 23:40 | 52.18033 | 2.11660 | 28046 ft | 479 kts | 68° |
| 2026-05-07 23:41 | 52.19265 | 2.16720 | 28353 ft | 481 kts | 68° |
| 2026-05-07 23:41 | 52.20501 | 2.21805 | 28670 ft | 484 kts | 68° |
| 2026-05-07 23:41 | 52.21739 | 2.26913 | 28956 ft | 486 kts | 68° |
| 2026-05-07 23:41 | 52.22981 | 2.32051 | 29256 ft | 488 kts | 68° |
| 2026-05-07 23:42 | 52.24227 | 2.37218 | 29563 ft | 490 kts | 68° |
| 2026-05-07 23:42 | 52.25476 | 2.42407 | 29844 ft | 493 kts | 68° |
| 2026-05-07 23:42 | 52.26729 | 2.47630 | 30113 ft | 496 kts | 68° |
| 2026-05-07 23:42 | 52.27985 | 2.52874 | 30348 ft | 498 kts | 68° |
| 2026-05-07 23:43 | 52.29246 | 2.58150 | 30604 ft | 500 kts | 68° |
| 2026-05-07 23:43 | 52.30476 | 2.63469 | 30835 ft | 502 kts | 71° |
| 2026-05-07 23:43 | 52.31518 | 2.68914 | 31084 ft | 503 kts | 73° |
| 2026-05-07 23:43 | 52.32521 | 2.74411 | 31318 ft | 505 kts | 73° |
| 2026-05-07 23:44 | 52.33172 | 2.78064 | 31462 ft | 506 kts | 73° |
| 2026-05-07 23:44 | 52.34146 | 2.83604 | 31685 ft | 508 kts | 74° |
| 2026-05-07 23:44 | 52.35115 | 2.89171 | 31899 ft | 510 kts | 74° |
| 2026-05-07 23:44 | 52.36082 | 2.94746 | 32159 ft | 510 kts | 74° |
| 2026-05-07 23:45 | 52.37050 | 3.00335 | 32473 ft | 509 kts | 74° |
| 2026-05-07 23:45 | 52.38014 | 3.05902 | 32808 ft | 508 kts | 74° |
| 2026-05-07 23:45 | 52.38974 | 3.11456 | 33096 ft | 508 kts | 74° |
| 2026-05-07 23:45 | 52.39811 | 3.17072 | 33365 ft | 507 kts | 80° |
| 2026-05-07 23:46 | 52.40414 | 3.22753 | 33653 ft | 507 kts | 81° |
| 2026-05-07 23:46 | 52.40966 | 3.28450 | 33949 ft | 506 kts | 82° |
| 2026-05-07 23:46 | 52.41487 | 3.34157 | 34214 ft | 506 kts | 82° |
| 2026-05-07 23:46 | 52.41992 | 3.39851 | 34463 ft | 505 kts | 82° |
| 2026-05-07 23:47 | 52.42490 | 3.45545 | 34710 ft | 505 kts | 82° |
| 2026-05-07 23:47 | 52.42986 | 3.51235 | 34927 ft | 504 kts | 82° |
| 2026-05-07 23:47 | 52.43481 | 3.56924 | 35147 ft | 504 kts | 82° |
| 2026-05-07 23:47 | 52.43976 | 3.62606 | 35362 ft | 504 kts | 82° |
| 2026-05-07 23:48 | 52.44470 | 3.68292 | 35572 ft | 504 kts | 82° |
| 2026-05-07 23:48 | 52.44962 | 3.73979 | 35774 ft | 504 kts | 82° |
| 2026-05-07 23:48 | 52.45451 | 3.79659 | 35987 ft | 504 kts | 83° |
| 2026-05-07 23:48 | 52.45938 | 3.85349 | 36191 ft | 504 kts | 83° |
| 2026-05-07 23:49 | 52.46422 | 3.91026 | 36450 ft | 502 kts | 83° |
| 2026-05-07 23:49 | 52.46901 | 3.96684 | 36715 ft | 500 kts | 83° |
| 2026-05-07 23:49 | 52.47377 | 4.02341 | 36886 ft | 500 kts | 83° |
| 2026-05-07 23:49 | 52.47849 | 4.07989 | 37046 ft | 501 kts | 83° |
| 2026-05-07 23:50 | 52.48791 | 4.19371 | 37110 ft | 506 kts | 83° |
| 2026-05-07 23:50 | 52.49729 | 4.30828 | 37108 ft | 506 kts | 83° |
| 2026-05-07 23:51 | 52.50655 | 4.42281 | 37108 ft | 506 kts | 83° |
| 2026-05-07 23:51 | 52.51571 | 4.53744 | 37108 ft | 506 kts | 83° |
| 2026-05-07 23:52 | 52.52475 | 4.65205 | 37105 ft | 506 kts | 83° |
| 2026-05-07 23:52 | 52.53390 | 4.76669 | 37101 ft | 506 kts | 81° |
| 2026-05-07 23:53 | 52.55507 | 4.87668 | 37105 ft | 507 kts | 63° |
| 2026-05-07 23:53 | 52.59314 | 4.97400 | 37111 ft | 507 kts | 54° |
| 2026-05-07 23:54 | 52.63455 | 5.06708 | 37112 ft | 508 kts | 53° |
| 2026-05-07 23:54 | 52.67659 | 5.16046 | 37117 ft | 507 kts | 53° |
| 2026-05-07 23:55 | 52.71826 | 5.25415 | 37119 ft | 507 kts | 54° |
| 2026-05-07 23:55 | 52.75966 | 5.34820 | 37119 ft | 506 kts | 54° |
| 2026-05-07 23:56 | 52.80097 | 5.44252 | 37118 ft | 507 kts | 54° |
| 2026-05-07 23:56 | 52.84218 | 5.53697 | 37121 ft | 507 kts | 54° |
| 2026-05-07 23:57 | 52.88335 | 5.63162 | 37127 ft | 506 kts | 54° |
| 2026-05-07 23:57 | 52.92433 | 5.72619 | 37125 ft | 505 kts | 54° |
| 2026-05-07 23:58 | 52.96521 | 5.82090 | 37124 ft | 505 kts | 54° |
| 2026-05-07 23:58 | 53.00599 | 5.91572 | 37127 ft | 505 kts | 54° |
| 2026-05-07 23:59 | 53.04671 | 6.01073 | 37128 ft | 505 kts | 54° |
| 2026-05-07 23:59 | 53.08733 | 6.10589 | 37128 ft | 505 kts | 54° |
| 2026-05-08 00:00 | 53.12759 | 6.20055 | 37129 ft | 504 kts | 54° |
| 2026-05-08 00:00 | 53.16794 | 6.29578 | 37129 ft | 503 kts | 55° |
| 2026-05-08 00:01 | 53.20822 | 6.39120 | 37127 ft | 503 kts | 55° |
| 2026-05-08 00:01 | 53.24842 | 6.48680 | 37127 ft | 503 kts | 55° |
| 2026-05-08 00:02 | 53.28859 | 6.58249 | 37128 ft | 503 kts | 54° |
| 2026-05-08 00:02 | 53.33682 | 6.66652 | 37131 ft | 502 kts | 36° |
| 2026-05-08 00:03 | 53.39389 | 6.73374 | 37133 ft | 502 kts | 33° |
| 2026-05-08 00:03 | 53.45225 | 6.79804 | 37135 ft | 502 kts | 32° |
| 2026-05-08 00:04 | 53.51069 | 6.86214 | 37158 ft | 502 kts | 32° |
| 2026-05-08 00:04 | 53.56732 | 6.93051 | 37145 ft | 501 kts | 42° |
| 2026-05-08 00:05 | 53.61780 | 7.01129 | 37140 ft | 501 kts | 44° |
| 2026-05-08 00:05 | 53.66711 | 7.09424 | 37140 ft | 501 kts | 45° |
| 2026-05-08 00:06 | 53.71615 | 7.17762 | 37140 ft | 501 kts | 45° |
| 2026-05-08 00:06 | 53.76525 | 7.26109 | 37143 ft | 501 kts | 45° |
| 2026-05-08 00:07 | 53.81428 | 7.34450 | 37131 ft | 499 kts | 45° |
| 2026-05-08 00:07 | 53.86292 | 7.42748 | 37141 ft | 500 kts | 45° |
| 2026-05-08 00:08 | 53.91180 | 7.51119 | 37146 ft | 500 kts | 45° |
| 2026-05-08 00:08 | 53.96066 | 7.59516 | 37150 ft | 500 kts | 45° |
| 2026-05-08 00:09 | 54.00943 | 7.67927 | 37160 ft | 500 kts | 46° |
| 2026-05-08 00:09 | 54.05805 | 7.76343 | 37155 ft | 498 kts | 46° |
| 2026-05-08 00:10 | 54.10649 | 7.84757 | 37162 ft | 497 kts | 46° |
| 2026-05-08 00:10 | 54.15492 | 7.93200 | 37161 ft | 498 kts | 46° |
| 2026-05-08 00:11 | 54.20328 | 8.01659 | 37161 ft | 498 kts | 46° |
| 2026-05-08 00:11 | 54.25155 | 8.10133 | 37163 ft | 496 kts | 46° |
| 2026-05-08 00:12 | 54.29951 | 8.18583 | 37161 ft | 494 kts | 47° |
| 2026-05-08 00:12 | 54.34733 | 8.27039 | 37180 ft | 494 kts | 47° |
| 2026-05-08 00:13 | 54.39504 | 8.35507 | 37162 ft | 494 kts | 47° |
| 2026-05-08 00:13 | 54.44274 | 8.44002 | 37181 ft | 494 kts | 47° |
| 2026-05-08 00:14 | 54.49035 | 8.52511 | 37161 ft | 493 kts | 47° |
| 2026-05-08 00:14 | 54.53774 | 8.61012 | 37162 ft | 492 kts | 47° |
| 2026-05-08 00:15 | 54.58496 | 8.69514 | 37174 ft | 491 kts | 47° |
| 2026-05-08 00:15 | 54.63214 | 8.78036 | 37175 ft | 491 kts | 47° |
| 2026-05-08 00:16 | 54.67925 | 8.86577 | 37166 ft | 491 kts | 47° |
| 2026-05-08 00:16 | 54.72625 | 8.95129 | 37156 ft | 491 kts | 47° |
| 2026-05-08 00:17 | 54.77286 | 9.03642 | 37159 ft | 490 kts | 47° |
| 2026-05-08 00:17 | 54.81974 | 9.12233 | 37179 ft | 490 kts | 47° |
| 2026-05-08 00:18 | 54.86171 | 9.21505 | 37161 ft | 489 kts | 61° |
| 2026-05-08 00:18 | 54.89172 | 9.32084 | 37165 ft | 488 kts | 66° |
| 2026-05-08 00:19 | 54.91924 | 9.42875 | 37166 ft | 488 kts | 67° |
| 2026-05-08 00:19 | 54.94631 | 9.53704 | 37182 ft | 489 kts | 67° |
| 2026-05-08 00:20 | 54.97349 | 9.64549 | 37186 ft | 489 kts | 67° |
| 2026-05-08 00:20 | 55.00068 | 9.75394 | 37185 ft | 489 kts | 67° |
| 2026-05-08 00:21 | 55.02780 | 9.86245 | 37186 ft | 489 kts | 67° |
| 2026-05-08 00:21 | 55.05482 | 9.97112 | 37185 ft | 488 kts | 67° |
| 2026-05-08 00:22 | 55.08174 | 10.07992 | 37190 ft | 488 kts | 67° |
| 2026-05-08 00:22 | 55.10853 | 10.18876 | 37182 ft | 488 kts | 67° |
| 2026-05-08 00:23 | 55.13523 | 10.29780 | 37185 ft | 488 kts | 67° |
| 2026-05-08 00:23 | 55.16185 | 10.40703 | 37184 ft | 488 kts | 67° |
| 2026-05-08 00:24 | 55.18835 | 10.51636 | 37188 ft | 488 kts | 68° |
| 2026-05-08 00:24 | 55.21476 | 10.62580 | 37187 ft | 488 kts | 68° |
| 2026-05-08 00:25 | 55.24108 | 10.73546 | 37190 ft | 488 kts | 68° |
| 2026-05-08 00:25 | 55.26730 | 10.84525 | 37193 ft | 488 kts | 68° |
| 2026-05-08 00:26 | 55.29340 | 10.95510 | 37194 ft | 488 kts | 68° |
| 2026-05-08 00:26 | 55.31944 | 11.06525 | 37185 ft | 488 kts | 68° |
| 2026-05-08 00:27 | 55.34536 | 11.17547 | 37180 ft | 488 kts | 68° |
| 2026-05-08 00:27 | 55.37117 | 11.28577 | 37193 ft | 488 kts | 68° |
| 2026-05-08 00:28 | 55.39687 | 11.39618 | 37193 ft | 488 kts | 68° |
| 2026-05-08 00:28 | 55.42229 | 11.50597 | 37191 ft | 488 kts | 68° |
| 2026-05-08 00:29 | 55.44780 | 11.61668 | 37195 ft | 488 kts | 68° |
| 2026-05-08 00:29 | 55.47321 | 11.72755 | 37200 ft | 488 kts | 68° |
| 2026-05-08 00:30 | 55.49850 | 11.83849 | 37200 ft | 488 kts | 68° |
| 2026-05-08 00:30 | 55.52367 | 11.94949 | 37206 ft | 487 kts | 69° |
| 2026-05-08 00:31 | 55.54877 | 12.06075 | 37212 ft | 487 kts | 69° |
| 2026-05-08 00:31 | 55.57375 | 12.17204 | 37208 ft | 487 kts | 69° |
| 2026-05-08 00:32 | 55.59443 | 12.26463 | 37203 ft | 487 kts | 69° |
| 2026-05-08 00:32 | 55.61923 | 12.37624 | 37209 ft | 488 kts | 69° |
| 2026-05-08 00:33 | 55.64391 | 12.48791 | 37213 ft | 487 kts | 69° |
| 2026-05-08 00:33 | 55.66847 | 12.59963 | 37202 ft | 487 kts | 69° |
| 2026-05-08 00:34 | 55.69297 | 12.71167 | 37208 ft | 487 kts | 69° |
| 2026-05-08 00:34 | 55.71737 | 12.82384 | 37210 ft | 488 kts | 69° |
| 2026-05-08 00:35 | 55.74165 | 12.93614 | 37204 ft | 487 kts | 69° |
| 2026-05-08 00:35 | 55.76584 | 13.04855 | 37208 ft | 487 kts | 69° |
| 2026-05-08 00:36 | 55.78991 | 13.16108 | 37204 ft | 487 kts | 69° |
| 2026-05-08 00:36 | 55.81385 | 13.27358 | 37207 ft | 487 kts | 70° |
| 2026-05-08 00:37 | 55.83769 | 13.38628 | 37209 ft | 487 kts | 70° |